sensor_id;sensor_type;location;lat;lon;timestamp;P1;durP1;ratioP1;P2;durP2;ratioP2
29908;SDS011;36247;51.952;6.146;2023-12-28T00:01:33;6.10;;;3.30;;
29908;SDS011;36247;51.952;6.146;2023-12-28T00:03:59;5.75;;;3.25;;
29908;SDS011;36247;51.952;6.146;2023-12-28T00:06:24;5.32;;;3.17;;
29908;SDS011;36247;51.952;6.146;2023-12-28T00:08:50;5.18;;;3.00;;
29908;SDS011;36247;51.952;6.146;2023-12-28T00:11:15;5.07;;;3.05;;
29908;SDS011;36247;51.952;6.146;2023-12-28T00:13:41;4.50;;;2.90;;
29908;SDS011;36247;51.952;6.146;2023-12-28T00:16:07;4.68;;;3.83;;
29908;SDS011;36247;51.952;6.146;2023-12-28T00:18:33;4.82;;;3.13;;
29908;SDS011;36247;51.952;6.146;2023-12-28T00:21:00;5.80;;;3.05;;
29908;SDS011;36247;51.952;6.146;2023-12-28T00:23:26;8.57;;;3.17;;
29908;SDS011;36247;51.952;6.146;2023-12-28T00:25:51;4.50;;;3.03;;
29908;SDS011;36247;51.952;6.146;2023-12-28T00:28:17;6.47;;;3.63;;
29908;SDS011;36247;51.952;6.146;2023-12-28T00:30:42;4.88;;;3.10;;
29908;SDS011;36247;51.952;6.146;2023-12-28T00:33:08;6.72;;;3.97;;
29908;SDS011;36247;51.952;6.146;2023-12-28T00:35:34;5.07;;;3.60;;
29908;SDS011;36247;51.952;6.146;2023-12-28T00:38:01;6.60;;;3.80;;
29908;SDS011;36247;51.952;6.146;2023-12-28T00:40:33;5.57;;;3.43;;
29908;SDS011;36247;51.952;6.146;2023-12-28T00:42:59;6.07;;;3.45;;
29908;SDS011;36247;51.952;6.146;2023-12-28T00:45:25;9.70;;;3.42;;
29908;SDS011;36247;51.952;6.146;2023-12-28T00:47:51;4.28;;;3.63;;
29908;SDS011;36247;51.952;6.146;2023-12-28T00:50:17;5.70;;;3.50;;
29908;SDS011;36247;51.952;6.146;2023-12-28T00:52:43;6.35;;;3.20;;
29908;SDS011;36247;51.952;6.146;2023-12-28T00:55:09;4.28;;;3.17;;
29908;SDS011;36247;51.952;6.146;2023-12-28T00:57:35;5.75;;;3.90;;
29908;SDS011;36247;51.952;6.146;2023-12-28T01:00:01;5.05;;;3.55;;
29908;SDS011;36247;51.952;6.146;2023-12-28T01:02:33;5.07;;;3.67;;
29908;SDS011;36247;51.952;6.146;2023-12-28T01:05:00;4.63;;;3.78;;
29908;SDS011;36247;51.952;6.146;2023-12-28T01:07:26;6.90;;;3.88;;
29908;SDS011;36247;51.952;6.146;2023-12-28T01:09:51;5.40;;;3.47;;
29908;SDS011;36247;51.952;6.146;2023-12-28T01:12:17;6.07;;;3.88;;
29908;SDS011;36247;51.952;6.146;2023-12-28T01:14:42;4.97;;;4.20;;
29908;SDS011;36247;51.952;6.146;2023-12-28T01:17:08;2.72;;;2.47;;
29908;SDS011;36247;51.952;6.146;2023-12-28T01:19:34;6.30;;;4.72;;
29908;SDS011;36247;51.952;6.146;2023-12-28T01:22:00;6.55;;;3.92;;
29908;SDS011;36247;51.952;6.146;2023-12-28T01:24:26;6.50;;;4.15;;
29908;SDS011;36247;51.952;6.146;2023-12-28T01:26:51;5.00;;;3.63;;
29908;SDS011;36247;51.952;6.146;2023-12-28T01:29:17;7.38;;;4.72;;
29908;SDS011;36247;51.952;6.146;2023-12-28T01:31:42;4.68;;;3.78;;
29908;SDS011;36247;51.952;6.146;2023-12-28T01:34:08;7.38;;;4.03;;
29908;SDS011;36247;51.952;6.146;2023-12-28T01:36:35;6.90;;;3.67;;
29908;SDS011;36247;51.952;6.146;2023-12-28T01:39:01;6.18;;;4.30;;
29908;SDS011;36247;51.952;6.146;2023-12-28T01:41:30;7.95;;;3.97;;
29908;SDS011;36247;51.952;6.146;2023-12-28T01:43:55;5.03;;;4.03;;
29908;SDS011;36247;51.952;6.146;2023-12-28T01:46:21;4.35;;;3.70;;
29908;SDS011;36247;51.952;6.146;2023-12-28T01:48:48;8.57;;;4.07;;
29908;SDS011;36247;51.952;6.146;2023-12-28T01:51:15;7.63;;;5.03;;
29908;SDS011;36247;51.952;6.146;2023-12-28T01:53:41;6.43;;;4.43;;
29908;SDS011;36247;51.952;6.146;2023-12-28T01:56:13;9.30;;;4.53;;
29908;SDS011;36247;51.952;6.146;2023-12-28T01:58:40;5.13;;;4.32;;
29908;SDS011;36247;51.952;6.146;2023-12-28T02:01:09;9.65;;;4.40;;
29908;SDS011;36247;51.952;6.146;2023-12-28T02:03:35;6.20;;;3.78;;
29908;SDS011;36247;51.952;6.146;2023-12-28T02:06:01;7.18;;;4.25;;
29908;SDS011;36247;51.952;6.146;2023-12-28T02:08:37;5.90;;;4.40;;
29908;SDS011;36247;51.952;6.146;2023-12-28T02:11:04;5.68;;;4.28;;
29908;SDS011;36247;51.952;6.146;2023-12-28T02:13:30;7.35;;;3.33;;
29908;SDS011;36247;51.952;6.146;2023-12-28T02:16:00;7.22;;;4.45;;
29908;SDS011;36247;51.952;6.146;2023-12-28T02:18:43;8.63;;;4.28;;
29908;SDS011;36247;51.952;6.146;2023-12-28T02:21:13;7.13;;;4.10;;
29908;SDS011;36247;51.952;6.146;2023-12-28T02:23:45;8.40;;;4.47;;
29908;SDS011;36247;51.952;6.146;2023-12-28T02:26:14;5.47;;;3.53;;
29908;SDS011;36247;51.952;6.146;2023-12-28T02:28:40;8.25;;;3.85;;
29908;SDS011;36247;51.952;6.146;2023-12-28T02:31:06;7.43;;;4.13;;
29908;SDS011;36247;51.952;6.146;2023-12-28T02:33:38;5.00;;;3.45;;
29908;SDS011;36247;51.952;6.146;2023-12-28T02:36:13;8.80;;;4.68;;
29908;SDS011;36247;51.952;6.146;2023-12-28T02:38:43;6.63;;;3.88;;
29908;SDS011;36247;51.952;6.146;2023-12-28T02:41:13;6.25;;;4.22;;
29908;SDS011;36247;51.952;6.146;2023-12-28T02:43:38;7.80;;;5.18;;
29908;SDS011;36247;51.952;6.146;2023-12-28T02:46:05;9.20;;;3.83;;
29908;SDS011;36247;51.952;6.146;2023-12-28T02:48:33;9.18;;;3.95;;
29908;SDS011;36247;51.952;6.146;2023-12-28T02:51:05;5.97;;;3.50;;
29908;SDS011;36247;51.952;6.146;2023-12-28T02:53:33;7.53;;;3.70;;
29908;SDS011;36247;51.952;6.146;2023-12-28T02:56:00;9.88;;;5.25;;
29908;SDS011;36247;51.952;6.146;2023-12-28T02:58:26;23.38;;;4.95;;
29908;SDS011;36247;51.952;6.146;2023-12-28T03:00:51;6.57;;;3.40;;
29908;SDS011;36247;51.952;6.146;2023-12-28T03:03:17;11.07;;;3.63;;
29908;SDS011;36247;51.952;6.146;2023-12-28T03:05:42;5.93;;;3.65;;
29908;SDS011;36247;51.952;6.146;2023-12-28T03:08:08;8.30;;;4.00;;
29908;SDS011;36247;51.952;6.146;2023-12-28T03:10:34;6.20;;;4.13;;
29908;SDS011;36247;51.952;6.146;2023-12-28T03:13:00;10.77;;;4.00;;
29908;SDS011;36247;51.952;6.146;2023-12-28T03:15:26;6.85;;;3.70;;
29908;SDS011;36247;51.952;6.146;2023-12-28T03:17:51;6.72;;;4.22;;
29908;SDS011;36247;51.952;6.146;2023-12-28T03:20:17;11.05;;;3.65;;
29908;SDS011;36247;51.952;6.146;2023-12-28T03:22:42;6.07;;;3.38;;
29908;SDS011;36247;51.952;6.146;2023-12-28T03:25:08;4.07;;;2.80;;
29908;SDS011;36247;51.952;6.146;2023-12-28T03:27:34;7.95;;;3.58;;
29908;SDS011;36247;51.952;6.146;2023-12-28T03:30:00;7.05;;;3.40;;
29908;SDS011;36247;51.952;6.146;2023-12-28T03:32:26;7.45;;;2.70;;
29908;SDS011;36247;51.952;6.146;2023-12-28T03:34:51;5.68;;;3.38;;
29908;SDS011;36247;51.952;6.146;2023-12-28T03:37:17;8.05;;;3.53;;
29908;SDS011;36247;51.952;6.146;2023-12-28T03:39:43;8.70;;;3.65;;
29908;SDS011;36247;51.952;6.146;2023-12-28T03:42:09;5.18;;;3.20;;
29908;SDS011;36247;51.952;6.146;2023-12-28T03:44:35;6.65;;;3.50;;
29908;SDS011;36247;51.952;6.146;2023-12-28T03:47:01;8.23;;;3.97;;
29908;SDS011;36247;51.952;6.146;2023-12-28T03:49:29;8.55;;;3.10;;
29908;SDS011;36247;51.952;6.146;2023-12-28T03:51:54;6.32;;;3.42;;
29908;SDS011;36247;51.952;6.146;2023-12-28T03:54:20;12.40;;;3.05;;
29908;SDS011;36247;51.952;6.146;2023-12-28T03:56:46;9.63;;;3.28;;
29908;SDS011;36247;51.952;6.146;2023-12-28T03:59:13;7.88;;;3.30;;
29908;SDS011;36247;51.952;6.146;2023-12-28T04:01:42;8.70;;;3.13;;
29908;SDS011;36247;51.952;6.146;2023-12-28T04:04:07;11.07;;;3.65;;
29908;SDS011;36247;51.952;6.146;2023-12-28T04:06:34;9.70;;;3.03;;
29908;SDS011;36247;51.952;6.146;2023-12-28T04:09:00;10.05;;;3.17;;
29908;SDS011;36247;51.952;6.146;2023-12-28T04:11:26;4.40;;;3.13;;
29908;SDS011;36247;51.952;6.146;2023-12-28T04:13:51;6.03;;;3.03;;
29908;SDS011;36247;51.952;6.146;2023-12-28T04:16:17;8.32;;;3.35;;
29908;SDS011;36247;51.952;6.146;2023-12-28T04:18:42;10.30;;;3.58;;
29908;SDS011;36247;51.952;6.146;2023-12-28T04:21:12;3.08;;;2.75;;
29908;SDS011;36247;51.952;6.146;2023-12-28T04:23:40;5.80;;;2.65;;
29908;SDS011;36247;51.952;6.146;2023-12-28T04:26:06;9.30;;;3.35;;
29908;SDS011;36247;51.952;6.146;2023-12-28T04:28:33;8.65;;;3.17;;
29908;SDS011;36247;51.952;6.146;2023-12-28T04:31:06;14.23;;;3.67;;
29908;SDS011;36247;51.952;6.146;2023-12-28T04:33:33;5.50;;;2.95;;
29908;SDS011;36247;51.952;6.146;2023-12-28T04:36:00;7.22;;;3.20;;
29908;SDS011;36247;51.952;6.146;2023-12-28T04:38:31;7.72;;;2.95;;
29908;SDS011;36247;51.952;6.146;2023-12-28T04:40:59;8.32;;;2.90;;
29908;SDS011;36247;51.952;6.146;2023-12-28T04:43:25;9.98;;;3.33;;
29908;SDS011;36247;51.952;6.146;2023-12-28T04:45:51;9.40;;;3.10;;
29908;SDS011;36247;51.952;6.146;2023-12-28T04:48:17;11.73;;;3.45;;
29908;SDS011;36247;51.952;6.146;2023-12-28T04:50:48;10.88;;;4.57;;
29908;SDS011;36247;51.952;6.146;2023-12-28T04:53:14;12.05;;;3.80;;
29908;SDS011;36247;51.952;6.146;2023-12-28T04:55:41;11.27;;;3.50;;
29908;SDS011;36247;51.952;6.146;2023-12-28T04:58:06;9.93;;;3.10;;
29908;SDS011;36247;51.952;6.146;2023-12-28T05:00:33;11.15;;;3.53;;
29908;SDS011;36247;51.952;6.146;2023-12-28T05:02:59;8.02;;;3.72;;
29908;SDS011;36247;51.952;6.146;2023-12-28T05:05:25;15.80;;;3.72;;
29908;SDS011;36247;51.952;6.146;2023-12-28T05:07:50;9.13;;;3.20;;
29908;SDS011;36247;51.952;6.146;2023-12-28T05:10:16;15.80;;;3.60;;
29908;SDS011;36247;51.952;6.146;2023-12-28T05:12:41;10.15;;;3.75;;
29908;SDS011;36247;51.952;6.146;2023-12-28T05:15:07;11.18;;;3.28;;
29908;SDS011;36247;51.952;6.146;2023-12-28T05:17:33;7.95;;;2.38;;
29908;SDS011;36247;51.952;6.146;2023-12-28T05:19:59;12.23;;;2.70;;
29908;SDS011;36247;51.952;6.146;2023-12-28T05:22:24;10.60;;;3.40;;
29908;SDS011;36247;51.952;6.146;2023-12-28T05:24:50;10.95;;;3.10;;
29908;SDS011;36247;51.952;6.146;2023-12-28T05:27:16;8.52;;;3.55;;
29908;SDS011;36247;51.952;6.146;2023-12-28T05:29:41;10.35;;;2.58;;
29908;SDS011;36247;51.952;6.146;2023-12-28T05:32:07;10.35;;;2.65;;
29908;SDS011;36247;51.952;6.146;2023-12-28T05:34:33;6.90;;;2.85;;
29908;SDS011;36247;51.952;6.146;2023-12-28T05:36:59;8.98;;;3.38;;
29908;SDS011;36247;51.952;6.146;2023-12-28T05:39:24;14.93;;;3.65;;
29908;SDS011;36247;51.952;6.146;2023-12-28T05:41:49;4.97;;;2.63;;
29908;SDS011;36247;51.952;6.146;2023-12-28T05:44:16;11.75;;;3.08;;
29908;SDS011;36247;51.952;6.146;2023-12-28T05:46:42;13.85;;;3.40;;
29908;SDS011;36247;51.952;6.146;2023-12-28T05:49:08;14.80;;;3.83;;
29908;SDS011;36247;51.952;6.146;2023-12-28T05:51:37;12.30;;;3.28;;
29908;SDS011;36247;51.952;6.146;2023-12-28T05:54:05;15.50;;;3.67;;
29908;SDS011;36247;51.952;6.146;2023-12-28T05:56:34;11.85;;;3.83;;
29908;SDS011;36247;51.952;6.146;2023-12-28T05:59:01;12.60;;;3.50;;
29908;SDS011;36247;51.952;6.146;2023-12-28T06:01:26;13.15;;;3.60;;
29908;SDS011;36247;51.952;6.146;2023-12-28T06:03:52;9.13;;;2.88;;
29908;SDS011;36247;51.952;6.146;2023-12-28T06:06:18;15.23;;;3.00;;
29908;SDS011;36247;51.952;6.146;2023-12-28T06:08:44;15.52;;;3.10;;
29908;SDS011;36247;51.952;6.146;2023-12-28T06:11:10;8.20;;;3.22;;
29908;SDS011;36247;51.952;6.146;2023-12-28T06:13:35;11.30;;;3.53;;
29908;SDS011;36247;51.952;6.146;2023-12-28T06:16:03;9.68;;;2.60;;
29908;SDS011;36247;51.952;6.146;2023-12-28T06:18:31;22.90;;;4.30;;
29908;SDS011;36247;51.952;6.146;2023-12-28T06:21:01;18.38;;;3.45;;
29908;SDS011;36247;51.952;6.146;2023-12-28T06:23:31;24.00;;;3.70;;
29908;SDS011;36247;51.952;6.146;2023-12-28T06:26:05;8.73;;;2.65;;
29908;SDS011;36247;51.952;6.146;2023-12-28T06:28:34;10.10;;;3.25;;
29908;SDS011;36247;51.952;6.146;2023-12-28T06:31:05;14.32;;;3.58;;
29908;SDS011;36247;51.952;6.146;2023-12-28T06:33:33;15.43;;;3.65;;
29908;SDS011;36247;51.952;6.146;2023-12-28T06:36:04;15.30;;;3.47;;
29908;SDS011;36247;51.952;6.146;2023-12-28T06:38:33;12.50;;;3.42;;
29908;SDS011;36247;51.952;6.146;2023-12-28T06:40:59;17.02;;;3.53;;
29908;SDS011;36247;51.952;6.146;2023-12-28T06:43:25;12.27;;;3.65;;
29908;SDS011;36247;51.952;6.146;2023-12-28T06:45:50;11.25;;;3.13;;
29908;SDS011;36247;51.952;6.146;2023-12-28T06:48:17;7.82;;;2.63;;
29908;SDS011;36247;51.952;6.146;2023-12-28T06:50:43;11.77;;;2.80;;
29908;SDS011;36247;51.952;6.146;2023-12-28T06:53:09;14.13;;;3.15;;
29908;SDS011;36247;51.952;6.146;2023-12-28T06:55:35;17.00;;;3.40;;
29908;SDS011;36247;51.952;6.146;2023-12-28T06:58:01;17.38;;;3.25;;
29908;SDS011;36247;51.952;6.146;2023-12-28T07:00:34;13.90;;;3.33;;
29908;SDS011;36247;51.952;6.146;2023-12-28T07:03:00;19.05;;;4.32;;
29908;SDS011;36247;51.952;6.146;2023-12-28T07:05:26;19.63;;;3.92;;
29908;SDS011;36247;51.952;6.146;2023-12-28T07:07:51;14.38;;;3.10;;
29908;SDS011;36247;51.952;6.146;2023-12-28T07:10:17;12.65;;;3.20;;
29908;SDS011;36247;51.952;6.146;2023-12-28T07:12:42;16.40;;;3.10;;
29908;SDS011;36247;51.952;6.146;2023-12-28T07:15:08;18.73;;;3.33;;
29908;SDS011;36247;51.952;6.146;2023-12-28T07:17:38;20.65;;;5.05;;
29908;SDS011;36247;51.952;6.146;2023-12-28T07:20:06;19.52;;;3.70;;
29908;SDS011;36247;51.952;6.146;2023-12-28T07:22:34;13.77;;;4.30;;
29908;SDS011;36247;51.952;6.146;2023-12-28T07:25:01;12.73;;;3.40;;
29908;SDS011;36247;51.952;6.146;2023-12-28T07:27:32;17.30;;;3.47;;
29908;SDS011;36247;51.952;6.146;2023-12-28T07:30:05;15.35;;;3.92;;
29908;SDS011;36247;51.952;6.146;2023-12-28T07:32:33;11.30;;;3.72;;
29908;SDS011;36247;51.952;6.146;2023-12-28T07:35:00;13.07;;;3.10;;
29908;SDS011;36247;51.952;6.146;2023-12-28T07:37:26;17.67;;;4.25;;
29908;SDS011;36247;51.952;6.146;2023-12-28T07:39:52;20.42;;;3.05;;
29908;SDS011;36247;51.952;6.146;2023-12-28T07:42:18;15.63;;;2.47;;
29908;SDS011;36247;51.952;6.146;2023-12-28T07:44:44;15.32;;;3.67;;
29908;SDS011;36247;51.952;6.146;2023-12-28T07:47:09;21.67;;;3.92;;
29908;SDS011;36247;51.952;6.146;2023-12-28T07:49:35;14.60;;;3.42;;
29908;SDS011;36247;51.952;6.146;2023-12-28T07:52:01;10.88;;;3.30;;
29908;SDS011;36247;51.952;6.146;2023-12-28T07:54:30;14.80;;;2.95;;
29908;SDS011;36247;51.952;6.146;2023-12-28T07:56:56;19.95;;;3.38;;
29908;SDS011;36247;51.952;6.146;2023-12-28T07:59:21;19.58;;;3.85;;
29908;SDS011;36247;51.952;6.146;2023-12-28T08:01:48;19.33;;;3.67;;
29908;SDS011;36247;51.952;6.146;2023-12-28T08:04:13;27.10;;;4.38;;
29908;SDS011;36247;51.952;6.146;2023-12-28T08:06:39;13.50;;;2.97;;
29908;SDS011;36247;51.952;6.146;2023-12-28T08:09:05;18.05;;;3.70;;
29908;SDS011;36247;51.952;6.146;2023-12-28T08:11:31;10.13;;;3.28;;
29908;SDS011;36247;51.952;6.146;2023-12-28T08:13:59;13.23;;;3.20;;
29908;SDS011;36247;51.952;6.146;2023-12-28T08:16:24;16.65;;;3.97;;
29908;SDS011;36247;51.952;6.146;2023-12-28T08:18:53;19.02;;;3.97;;
29908;SDS011;36247;51.952;6.146;2023-12-28T08:21:18;15.95;;;3.47;;
29908;SDS011;36247;51.952;6.146;2023-12-28T08:23:44;16.85;;;3.75;;
29908;SDS011;36247;51.952;6.146;2023-12-28T08:26:10;20.40;;;3.80;;
29908;SDS011;36247;51.952;6.146;2023-12-28T08:28:36;16.63;;;4.05;;
29908;SDS011;36247;51.952;6.146;2023-12-28T08:31:04;11.68;;;3.22;;
29908;SDS011;36247;51.952;6.146;2023-12-28T08:33:36;25.13;;;4.72;;
29908;SDS011;36247;51.952;6.146;2023-12-28T08:36:05;13.73;;;3.72;;
29908;SDS011;36247;51.952;6.146;2023-12-28T08:38:34;22.63;;;3.78;;
29908;SDS011;36247;51.952;6.146;2023-12-28T08:41:03;12.00;;;3.40;;
29908;SDS011;36247;51.952;6.146;2023-12-28T08:43:35;26.37;;;5.10;;
29908;SDS011;36247;51.952;6.146;2023-12-28T08:46:07;24.30;;;3.42;;
29908;SDS011;36247;51.952;6.146;2023-12-28T08:48:34;13.95;;;3.38;;
29908;SDS011;36247;51.952;6.146;2023-12-28T08:51:01;15.30;;;3.90;;
29908;SDS011;36247;51.952;6.146;2023-12-28T08:53:26;20.52;;;4.05;;
29908;SDS011;36247;51.952;6.146;2023-12-28T08:55:52;17.88;;;4.10;;
29908;SDS011;36247;51.952;6.146;2023-12-28T08:58:17;17.42;;;4.10;;
29908;SDS011;36247;51.952;6.146;2023-12-28T09:00:43;14.35;;;3.75;;
29908;SDS011;36247;51.952;6.146;2023-12-28T09:03:10;13.48;;;3.30;;
29908;SDS011;36247;51.952;6.146;2023-12-28T09:05:36;18.98;;;4.35;;
29908;SDS011;36247;51.952;6.146;2023-12-28T09:08:04;13.02;;;3.72;;
29908;SDS011;36247;51.952;6.146;2023-12-28T09:10:34;15.98;;;4.35;;
29908;SDS011;36247;51.952;6.146;2023-12-28T09:13:04;22.42;;;3.55;;
29908;SDS011;36247;51.952;6.146;2023-12-28T09:15:31;20.48;;;3.83;;
29908;SDS011;36247;51.952;6.146;2023-12-28T09:17:56;19.00;;;3.45;;
29908;SDS011;36247;51.952;6.146;2023-12-28T09:20:22;14.75;;;4.30;;
29908;SDS011;36247;51.952;6.146;2023-12-28T09:22:48;15.57;;;3.72;;
29908;SDS011;36247;51.952;6.146;2023-12-28T09:25:19;16.73;;;3.88;;
29908;SDS011;36247;51.952;6.146;2023-12-28T09:27:45;23.92;;;4.15;;
29908;SDS011;36247;51.952;6.146;2023-12-28T09:30:10;20.25;;;3.58;;
29908;SDS011;36247;51.952;6.146;2023-12-28T09:32:36;16.20;;;4.03;;
29908;SDS011;36247;51.952;6.146;2023-12-28T09:35:04;25.30;;;4.63;;
29908;SDS011;36247;51.952;6.146;2023-12-28T09:37:33;26.15;;;4.75;;
29908;SDS011;36247;51.952;6.146;2023-12-28T09:40:04;21.00;;;3.67;;
29908;SDS011;36247;51.952;6.146;2023-12-28T09:42:38;13.85;;;2.92;;
29908;SDS011;36247;51.952;6.146;2023-12-28T09:45:09;21.30;;;4.40;;
29908;SDS011;36247;51.952;6.146;2023-12-28T09:47:35;15.30;;;3.17;;
29908;SDS011;36247;51.952;6.146;2023-12-28T09:50:03;17.08;;;4.80;;
29908;SDS011;36247;51.952;6.146;2023-12-28T09:52:33;15.00;;;3.92;;
29908;SDS011;36247;51.952;6.146;2023-12-28T09:55:03;24.05;;;4.40;;
29908;SDS011;36247;51.952;6.146;2023-12-28T09:57:34;21.05;;;4.47;;
29908;SDS011;36247;51.952;6.146;2023-12-28T10:00:05;14.70;;;3.20;;
29908;SDS011;36247;51.952;6.146;2023-12-28T10:02:37;25.50;;;4.10;;
29908;SDS011;36247;51.952;6.146;2023-12-28T10:05:06;15.70;;;3.65;;
29908;SDS011;36247;51.952;6.146;2023-12-28T10:07:39;12.10;;;3.92;;
29908;SDS011;36247;51.952;6.146;2023-12-28T10:10:06;15.52;;;3.38;;
29908;SDS011;36247;51.952;6.146;2023-12-28T10:12:34;17.23;;;4.97;;
29908;SDS011;36247;51.952;6.146;2023-12-28T10:15:00;18.45;;;3.80;;
29908;SDS011;36247;51.952;6.146;2023-12-28T10:17:26;21.30;;;4.13;;
29908;SDS011;36247;51.952;6.146;2023-12-28T10:19:52;12.02;;;2.85;;
29908;SDS011;36247;51.952;6.146;2023-12-28T10:22:18;15.18;;;3.55;;
29908;SDS011;36247;51.952;6.146;2023-12-28T10:24:45;20.70;;;4.30;;
29908;SDS011;36247;51.952;6.146;2023-12-28T10:27:11;18.55;;;3.65;;
29908;SDS011;36247;51.952;6.146;2023-12-28T10:29:39;23.88;;;3.88;;
29908;SDS011;36247;51.952;6.146;2023-12-28T10:32:05;17.20;;;3.10;;
29908;SDS011;36247;51.952;6.146;2023-12-28T10:34:33;25.58;;;4.20;;
29908;SDS011;36247;51.952;6.146;2023-12-28T10:37:01;20.27;;;4.00;;
29908;SDS011;36247;51.952;6.146;2023-12-28T10:39:34;22.27;;;4.50;;
29908;SDS011;36247;51.952;6.146;2023-12-28T10:42:04;12.32;;;3.28;;
29908;SDS011;36247;51.952;6.146;2023-12-28T10:44:35;12.98;;;3.42;;
29908;SDS011;36247;51.952;6.146;2023-12-28T10:47:07;16.23;;;3.85;;
29908;SDS011;36247;51.952;6.146;2023-12-28T10:49:40;14.88;;;3.40;;
29908;SDS011;36247;51.952;6.146;2023-12-28T10:52:09;17.20;;;3.42;;
29908;SDS011;36247;51.952;6.146;2023-12-28T10:55:40;15.98;;;4.13;;
29908;SDS011;36247;51.952;6.146;2023-12-28T11:00:53;24.73;;;3.75;;
29908;SDS011;36247;51.952;6.146;2023-12-28T11:03:26;23.98;;;3.58;;
29908;SDS011;36247;51.952;6.146;2023-12-28T11:05:55;17.10;;;3.75;;
29908;SDS011;36247;51.952;6.146;2023-12-28T11:08:22;19.33;;;4.00;;
29908;SDS011;36247;51.952;6.146;2023-12-28T11:10:50;17.10;;;3.55;;
29908;SDS011;36247;51.952;6.146;2023-12-28T11:13:16;20.27;;;3.85;;
29908;SDS011;36247;51.952;6.146;2023-12-28T11:15:47;16.88;;;3.88;;
29908;SDS011;36247;51.952;6.146;2023-12-28T11:18:14;16.60;;;3.45;;
29908;SDS011;36247;51.952;6.146;2023-12-28T11:20:41;18.55;;;4.65;;
29908;SDS011;36247;51.952;6.146;2023-12-28T11:23:08;23.42;;;3.88;;
29908;SDS011;36247;51.952;6.146;2023-12-28T11:25:35;18.30;;;3.83;;
29908;SDS011;36247;51.952;6.146;2023-12-28T11:28:13;21.13;;;4.95;;
29908;SDS011;36247;51.952;6.146;2023-12-28T11:30:41;24.83;;;4.47;;
29908;SDS011;36247;51.952;6.146;2023-12-28T11:33:06;17.50;;;4.38;;
29908;SDS011;36247;51.952;6.146;2023-12-28T11:35:34;18.30;;;3.60;;
29908;SDS011;36247;51.952;6.146;2023-12-28T11:38:08;25.23;;;4.35;;
29908;SDS011;36247;51.952;6.146;2023-12-28T11:40:41;24.05;;;5.10;;
29908;SDS011;36247;51.952;6.146;2023-12-28T11:43:20;13.55;;;3.88;;
29908;SDS011;36247;51.952;6.146;2023-12-28T11:45:50;24.70;;;3.85;;
29908;SDS011;36247;51.952;6.146;2023-12-28T11:48:23;20.40;;;4.05;;
29908;SDS011;36247;51.952;6.146;2023-12-28T11:50:54;21.35;;;4.03;;
29908;SDS011;36247;51.952;6.146;2023-12-28T11:53:21;18.20;;;4.75;;
29908;SDS011;36247;51.952;6.146;2023-12-28T11:55:48;24.05;;;4.45;;
29908;SDS011;36247;51.952;6.146;2023-12-28T11:58:13;24.75;;;4.30;;
29908;SDS011;36247;51.952;6.146;2023-12-28T12:00:40;18.25;;;4.28;;
29908;SDS011;36247;51.952;6.146;2023-12-28T12:03:06;30.85;;;4.05;;
29908;SDS011;36247;51.952;6.146;2023-12-28T12:05:36;25.27;;;4.53;;
29908;SDS011;36247;51.952;6.146;2023-12-28T12:08:04;19.55;;;4.40;;
29908;SDS011;36247;51.952;6.146;2023-12-28T12:10:36;17.52;;;3.75;;
29908;SDS011;36247;51.952;6.146;2023-12-28T12:13:04;22.58;;;5.22;;
29908;SDS011;36247;51.952;6.146;2023-12-28T12:15:35;20.48;;;4.70;;
29908;SDS011;36247;51.952;6.146;2023-12-28T12:18:04;23.70;;;3.70;;
29908;SDS011;36247;51.952;6.146;2023-12-28T12:20:34;16.15;;;3.92;;
29908;SDS011;36247;51.952;6.146;2023-12-28T12:23:03;21.02;;;4.28;;
29908;SDS011;36247;51.952;6.146;2023-12-28T12:25:33;41.53;;;4.45;;
29908;SDS011;36247;51.952;6.146;2023-12-28T12:27:59;21.67;;;4.55;;
29908;SDS011;36247;51.952;6.146;2023-12-28T12:30:25;22.90;;;4.10;;
29908;SDS011;36247;51.952;6.146;2023-12-28T12:32:50;21.60;;;4.43;;
29908;SDS011;36247;51.952;6.146;2023-12-28T12:35:16;25.17;;;4.03;;
29908;SDS011;36247;51.952;6.146;2023-12-28T12:37:43;21.40;;;3.65;;
29908;SDS011;36247;51.952;6.146;2023-12-28T12:40:10;24.38;;;4.25;;
29908;SDS011;36247;51.952;6.146;2023-12-28T12:42:37;18.45;;;4.20;;
29908;SDS011;36247;51.952;6.146;2023-12-28T12:45:05;19.65;;;3.88;;
29908;SDS011;36247;51.952;6.146;2023-12-28T12:47:34;17.67;;;3.92;;
29908;SDS011;36247;51.952;6.146;2023-12-28T12:50:04;21.23;;;4.93;;
29908;SDS011;36247;51.952;6.146;2023-12-28T12:52:36;21.38;;;3.97;;
29908;SDS011;36247;51.952;6.146;2023-12-28T12:55:02;17.45;;;3.88;;
29908;SDS011;36247;51.952;6.146;2023-12-28T12:57:36;15.52;;;4.05;;
29908;SDS011;36247;51.952;6.146;2023-12-28T13:00:05;25.38;;;4.78;;
29908;SDS011;36247;51.952;6.146;2023-12-28T13:02:34;14.65;;;4.10;;
29908;SDS011;36247;51.952;6.146;2023-12-28T13:05:04;17.33;;;3.70;;
29908;SDS011;36247;51.952;6.146;2023-12-28T13:07:34;19.63;;;4.35;;
29908;SDS011;36247;51.952;6.146;2023-12-28T13:10:01;18.48;;;4.13;;
29908;SDS011;36247;51.952;6.146;2023-12-28T13:12:33;26.33;;;4.43;;
29908;SDS011;36247;51.952;6.146;2023-12-28T13:15:01;32.10;;;5.43;;
29908;SDS011;36247;51.952;6.146;2023-12-28T13:17:29;20.52;;;5.32;;
29908;SDS011;36247;51.952;6.146;2023-12-28T13:19:54;14.30;;;4.45;;
29908;SDS011;36247;51.952;6.146;2023-12-28T13:22:20;19.80;;;3.80;;
29908;SDS011;36247;51.952;6.146;2023-12-28T13:24:47;16.33;;;3.58;;
29908;SDS011;36247;51.952;6.146;2023-12-28T13:27:13;17.23;;;3.80;;
29908;SDS011;36247;51.952;6.146;2023-12-28T13:29:39;15.57;;;3.65;;
29908;SDS011;36247;51.952;6.146;2023-12-28T13:32:06;14.38;;;3.30;;
29908;SDS011;36247;51.952;6.146;2023-12-28T13:34:34;16.77;;;3.78;;
29908;SDS011;36247;51.952;6.146;2023-12-28T13:37:04;18.80;;;5.28;;
29908;SDS011;36247;51.952;6.146;2023-12-28T13:39:34;15.95;;;4.18;;
29908;SDS011;36247;51.952;6.146;2023-12-28T13:42:06;24.27;;;4.18;;
29908;SDS011;36247;51.952;6.146;2023-12-28T13:44:36;18.58;;;3.45;;
29908;SDS011;36247;51.952;6.146;2023-12-28T13:47:03;27.13;;;4.15;;
29908;SDS011;36247;51.952;6.146;2023-12-28T13:49:34;19.05;;;3.83;;
29908;SDS011;36247;51.952;6.146;2023-12-28T13:52:01;22.15;;;4.40;;
29908;SDS011;36247;51.952;6.146;2023-12-28T13:54:34;17.17;;;4.63;;
29908;SDS011;36247;51.952;6.146;2023-12-28T13:57:01;26.45;;;3.92;;
29908;SDS011;36247;51.952;6.146;2023-12-28T13:59:26;26.75;;;4.88;;
29908;SDS011;36247;51.952;6.146;2023-12-28T14:01:52;24.38;;;4.50;;
29908;SDS011;36247;51.952;6.146;2023-12-28T14:04:17;25.90;;;4.10;;
29908;SDS011;36247;51.952;6.146;2023-12-28T14:06:43;23.00;;;4.18;;
29908;SDS011;36247;51.952;6.146;2023-12-28T14:09:08;21.17;;;4.10;;
29908;SDS011;36247;51.952;6.146;2023-12-28T14:11:36;22.45;;;4.13;;
29908;SDS011;36247;51.952;6.146;2023-12-28T14:14:06;14.93;;;3.72;;
29908;SDS011;36247;51.952;6.146;2023-12-28T14:16:34;21.35;;;4.80;;
29908;SDS011;36247;51.952;6.146;2023-12-28T14:18:59;19.42;;;3.70;;
29908;SDS011;36247;51.952;6.146;2023-12-28T14:21:36;27.67;;;4.68;;
29908;SDS011;36247;51.952;6.146;2023-12-28T14:24:04;20.63;;;5.75;;
29908;SDS011;36247;51.952;6.146;2023-12-28T14:26:34;15.82;;;3.67;;
29908;SDS011;36247;51.952;6.146;2023-12-28T14:29:07;20.70;;;4.43;;
29908;SDS011;36247;51.952;6.146;2023-12-28T14:31:34;13.90;;;3.83;;
29908;SDS011;36247;51.952;6.146;2023-12-28T14:33:59;18.48;;;4.80;;
29908;SDS011;36247;51.952;6.146;2023-12-28T14:36:32;21.65;;;4.50;;
29908;SDS011;36247;51.952;6.146;2023-12-28T14:39:07;23.70;;;4.43;;
29908;SDS011;36247;51.952;6.146;2023-12-28T14:41:34;24.15;;;4.32;;
29908;SDS011;36247;51.952;6.146;2023-12-28T14:44:04;22.33;;;4.03;;